createdAt,value
2019-03-22T00:02:10.863Z,95.54
2019-03-22T00:04:42.354Z,95.55
2019-03-22T00:07:13.696Z,95.54
2019-03-22T00:09:45.024Z,95.37
2019-03-22T00:12:16.415Z,95.36
2019-03-22T00:14:47.738Z,95.32
2019-03-22T00:17:19.073Z,95.34
2019-03-22T00:19:50.480Z,95.23
2019-03-22T00:22:21.734Z,95.33
2019-03-22T00:24:53.039Z,95.32
2019-03-22T00:27:24.328Z,95.34
2019-03-22T00:29:55.669Z,95.32
2019-03-22T00:32:27.020Z,95.27
2019-03-22T00:34:58.554Z,95.21
2019-03-22T00:37:29.835Z,95.21
2019-03-22T00:40:01.133Z,95.12
2019-03-22T00:42:32.486Z,94.73
2019-03-22T00:45:03.803Z,94.77
2019-03-22T00:47:35.131Z,94.85
2019-03-22T00:50:06.706Z,94.79
2019-03-22T00:52:38.017Z,94.92
2019-03-22T00:55:10.155Z,95.02
2019-03-22T00:57:41.471Z,95.00
2019-03-22T01:00:13.465Z,95.07
2019-03-22T01:02:44.826Z,95.02
2019-03-22T01:05:17.603Z,94.79
2019-03-22T01:07:49.449Z,94.63
2019-03-22T01:10:20.856Z,94.48
2019-03-22T01:12:52.178Z,94.38
2019-03-22T01:15:23.512Z,94.46
2019-03-22T01:17:54.905Z,94.43
2019-03-22T01:20:26.182Z,94.38
2019-03-22T01:23:00.037Z,94.12
2019-03-22T01:25:30.625Z,94.00
2019-03-22T01:28:01.886Z,93.66
2019-03-22T01:30:33.138Z,93.84
2019-03-22T01:33:04.559Z,93.70
2019-03-22T01:35:35.909Z,93.84
2019-03-22T01:38:07.287Z,93.87
2019-03-22T01:40:38.632Z,93.63
2019-03-22T01:43:10.111Z,93.56
2019-03-22T01:45:41.408Z,93.68
2019-03-22T01:48:12.753Z,93.81
2019-03-22T01:50:44.228Z,93.77
2019-03-22T01:53:15.640Z,93.74
2019-03-22T01:55:46.904Z,93.75
2019-03-22T01:58:18.216Z,93.88
2019-03-22T02:00:49.453Z,94.09
2019-03-22T02:03:20.856Z,94.03
2019-03-22T02:05:52.233Z,93.83
2019-03-22T02:08:23.982Z,93.92
2019-03-22T02:10:55.358Z,94.05
2019-03-22T02:13:26.758Z,94.12
2019-03-22T02:15:58.160Z,94.10
2019-03-22T02:18:29.407Z,94.24
2019-03-22T02:21:00.783Z,94.28
2019-03-22T02:23:32.077Z,94.12
2019-03-22T02:26:03.374Z,94.19
2019-03-22T02:28:34.662Z,94.15
2019-03-22T02:31:06.017Z,93.95
2019-03-22T02:33:37.344Z,93.96
2019-03-22T02:36:08.659Z,93.99
2019-03-22T02:38:40.008Z,94.03
2019-03-22T02:41:11.415Z,93.94
2019-03-22T02:43:42.763Z,93.87
2019-03-22T02:46:14.127Z,94.03
2019-03-22T02:48:45.429Z,94.15
2019-03-22T02:51:16.826Z,94.25
2019-03-22T02:53:48.122Z,94.60
2019-03-22T02:56:19.463Z,94.52
2019-03-22T02:58:50.746Z,94.57
2019-03-22T03:01:22.063Z,94.28
2019-03-22T04:24:49.036Z,94.15
2019-03-22T04:27:23.929Z,94.10
2019-03-22T04:29:56.842Z,93.93
2019-03-22T04:32:29.340Z,94.11
2019-03-22T04:35:00.778Z,94.13
2019-03-22T04:37:54.070Z,94.08
2019-03-22T04:40:28.864Z,94.18
2019-03-22T04:43:00.429Z,94.14
2019-03-22T04:45:34.815Z,94.08
2019-03-22T04:48:14.754Z,94.07
2019-03-22T04:50:49.812Z,94.04
2019-03-22T04:53:27.400Z,94.09
2019-03-22T04:56:04.783Z,94.00
2019-03-22T04:58:43.467Z,94.06
2019-03-22T05:01:18.879Z,94.14
2019-03-22T05:03:50.665Z,94.13
2019-03-22T05:06:23.538Z,94.18
2019-03-22T05:08:57.253Z,94.17
2019-03-22T05:11:30.050Z,94.17
2019-03-22T05:14:05.273Z,94.07
2019-03-22T05:16:41.902Z,94.16
2019-03-22T05:19:17.207Z,94.08
2019-03-22T05:21:51.464Z,94.05
2019-03-22T05:24:25.669Z,94.03
2019-03-22T05:26:59.827Z,93.92
2019-03-22T05:29:34.979Z,93.95
2019-03-22T05:32:14.725Z,93.92
2019-03-22T05:34:46.059Z,93.92
2019-03-22T05:37:17.345Z,94.10
2019-03-22T05:39:48.687Z,94.05
2019-03-22T05:42:20.004Z,94.04
2019-03-22T05:44:51.263Z,93.98
2019-03-22T05:47:22.633Z,93.94
2019-03-22T05:49:53.932Z,93.98
2019-03-22T05:52:25.232Z,94.03
2019-03-22T05:54:56.540Z,94.13
2019-03-22T05:57:27.909Z,94.28
2019-03-22T05:59:59.234Z,94.24
2019-03-22T06:02:30.578Z,94.29
2019-03-22T06:05:01.851Z,94.17
2019-03-22T06:07:33.134Z,94.24
2019-03-22T06:10:04.688Z,93.70
2019-03-22T06:12:35.998Z,93.47
2019-03-22T06:15:08.320Z,93.84
2019-03-22T06:17:50.907Z,93.67
2019-03-22T06:20:12.664Z,93.73
2019-03-22T06:22:43.921Z,93.87
2019-03-22T06:25:15.166Z,93.99
2019-03-22T06:27:46.418Z,94.03
2019-03-22T06:30:17.774Z,94.09
2019-03-22T06:32:49.103Z,94.30
2019-03-22T06:35:20.428Z,94.22
2019-03-22T06:37:51.766Z,94.31
2019-03-22T06:40:23.178Z,94.21
2019-03-22T06:42:54.489Z,94.15
2019-03-22T06:45:25.828Z,94.16
2019-03-22T06:47:56.988Z,94.09
2019-03-22T06:50:28.403Z,94.07
2019-03-22T06:52:59.771Z,94.14
2019-03-22T06:55:31.096Z,94.18
2019-03-22T06:58:02.383Z,94.18
2019-03-22T07:00:33.656Z,93.86
2019-03-22T07:03:05.026Z,93.79
2019-03-22T07:05:36.313Z,93.91
2019-03-22T07:08:07.653Z,93.89
2019-03-22T07:10:38.956Z,93.77
2019-03-22T07:13:10.365Z,93.43
2019-03-22T07:15:41.714Z,93.38
2019-03-22T07:18:13.047Z,93.39
2019-03-22T07:20:44.394Z,93.43
2019-03-22T07:23:15.722Z,93.37
2019-03-22T07:25:47.646Z,93.25
2019-03-22T07:28:18.977Z,93.37
2019-03-22T07:30:50.289Z,93.39
2019-03-22T07:33:21.647Z,93.25
2019-03-22T07:35:52.960Z,93.27
2019-03-22T07:38:27.163Z,93.32
2019-03-22T07:40:58.376Z,93.30
2019-03-22T07:43:29.848Z,93.17
2019-03-22T07:46:01.302Z,93.14
2019-03-22T07:48:32.632Z,92.88
2019-03-22T07:51:04.058Z,92.74
2019-03-22T07:53:35.369Z,92.62
2019-03-22T07:56:06.886Z,92.46
2019-03-22T07:58:38.183Z,92.50
2019-03-22T08:01:09.487Z,92.47
2019-03-22T08:03:40.797Z,92.36
2019-03-22T08:06:12.131Z,92.11
2019-03-22T08:08:43.432Z,91.66
2019-03-22T08:11:14.798Z,91.39
2019-03-22T08:13:46.035Z,91.21
2019-03-22T08:16:17.280Z,91.17
2019-03-22T08:18:48.637Z,91.04
2019-03-22T08:21:19.978Z,90.86
2019-03-22T08:23:51.322Z,90.49
2019-03-22T08:26:22.642Z,90.00
2019-03-22T08:28:53.874Z,89.41
2019-03-22T08:31:25.070Z,89.16
2019-03-22T08:33:56.406Z,89.68
2019-03-22T08:36:27.590Z,89.08
2019-03-22T08:38:58.763Z,88.42
2019-03-22T08:41:30.143Z,88.85
2019-03-22T08:44:02.852Z,88.42
2019-03-22T08:46:34.475Z,88.42
2019-03-22T08:49:09.077Z,88.94
2019-03-22T08:51:38.814Z,88.55
2019-03-22T08:54:10.034Z,88.93
2019-03-22T08:56:41.339Z,88.89
2019-03-22T08:59:13.543Z,88.19
2019-03-22T09:01:45.053Z,88.52
2019-03-22T09:04:16.327Z,88.95
2019-03-22T09:06:47.627Z,88.63
2019-03-22T09:09:18.742Z,88.42
2019-03-22T09:11:50.048Z,87.93
2019-03-22T09:14:21.279Z,87.60
2019-03-22T09:16:52.665Z,87.05
2019-03-22T09:19:23.908Z,87.11
2019-03-22T09:21:55.266Z,86.78
2019-03-22T09:24:38.518Z,86.48
2019-03-22T09:26:59.557Z,86.03
2019-03-22T09:29:30.743Z,86.71
2019-03-22T09:32:02.009Z,86.26
2019-03-22T09:34:34.247Z,86.28
2019-03-22T09:37:08.641Z,86.44
2019-03-22T09:39:39.073Z,86.42
2019-03-22T09:42:10.390Z,85.56
2019-03-22T09:44:43.839Z,85.57
2019-03-22T09:47:16.504Z,85.56
2019-03-22T09:49:47.589Z,85.62
2019-03-22T09:52:18.914Z,85.20
2019-03-22T09:54:50.623Z,85.44
2019-03-22T09:57:21.938Z,85.91
2019-03-22T09:59:53.248Z,85.60
2019-03-22T10:02:24.556Z,85.42
2019-03-22T10:04:55.798Z,85.30
2019-03-22T10:07:27.179Z,85.81
2019-03-22T10:09:58.361Z,86.08
2019-03-22T10:12:29.705Z,84.52
2019-03-22T10:15:01.039Z,84.80
2019-03-22T10:17:32.325Z,85.26
2019-03-22T10:20:03.508Z,85.22
2019-03-22T10:22:34.924Z,84.04
2019-03-22T10:25:06.721Z,83.87
2019-03-22T10:27:38.067Z,84.59
2019-03-22T10:30:09.977Z,83.29
2019-03-22T10:32:41.255Z,83.61
2019-03-22T10:35:25.436Z,83.47
2019-03-22T10:37:45.930Z,82.91
2019-03-22T10:40:17.425Z,82.18
2019-03-22T10:42:48.849Z,81.81
2019-03-22T10:45:20.271Z,81.69
2019-03-22T10:47:51.579Z,81.50
2019-03-22T10:50:22.907Z,81.21
2019-03-22T10:52:54.230Z,81.63
2019-03-22T10:55:30.308Z,81.16
2019-03-22T10:57:58.243Z,80.41
2019-03-22T11:00:29.657Z,80.60
2019-03-22T11:03:00.976Z,79.42
2019-03-22T11:05:32.312Z,79.32
2019-03-22T11:08:03.556Z,79.42
2019-03-22T11:10:34.839Z,79.18
2019-03-22T11:13:06.446Z,78.72
2019-03-22T11:15:47.919Z,78.34
2019-03-22T11:18:10.886Z,79.16
2019-03-22T11:20:42.278Z,78.17
2019-03-22T11:23:13.459Z,76.58
2019-03-22T11:25:44.804Z,76.68
2019-03-22T11:28:16.195Z,75.42
2019-03-22T11:30:47.529Z,76.81
2019-03-22T11:33:18.830Z,76.52
2019-03-22T11:35:50.204Z,75.79
2019-03-22T11:38:23.002Z,76.58
2019-03-22T11:40:54.346Z,76.13
2019-03-22T11:43:25.738Z,75.72
2019-03-22T11:45:56.928Z,75.84
2019-03-22T11:48:28.231Z,75.51
2019-03-22T11:50:59.477Z,75.62
2019-03-22T11:53:30.695Z,74.87
2019-03-22T11:56:02.052Z,74.90
2019-03-22T11:58:33.366Z,74.28
2019-03-22T12:01:04.634Z,72.53
2019-03-22T12:03:35.977Z,72.39
2019-03-22T12:06:07.485Z,71.57
2019-03-22T12:08:38.764Z,71.81
2019-03-22T12:11:10.011Z,70.98
2019-03-22T12:13:41.374Z,72.49
2019-03-22T12:16:12.701Z,71.65
2019-03-22T12:18:44.004Z,71.13
2019-03-22T12:21:15.385Z,71.24
2019-03-22T12:23:46.770Z,70.27
2019-03-22T12:26:18.073Z,70.16
2019-03-22T12:28:49.417Z,67.59
2019-03-22T12:31:20.764Z,70.71
2019-03-22T12:33:52.006Z,72.12
2019-03-22T12:36:23.267Z,70.80
2019-03-22T12:38:54.566Z,69.48
2019-03-22T12:41:25.805Z,67.11
2019-03-22T12:43:57.304Z,66.06
2019-03-22T12:46:28.585Z,62.28
2019-03-22T12:48:59.887Z,57.77
2019-03-22T12:51:31.225Z,52.31
2019-03-22T12:54:02.599Z,48.77
2019-03-22T12:56:33.808Z,47.66
2019-03-22T12:59:05.112Z,49.67
2019-03-22T13:01:36.403Z,51.81
2019-03-22T13:04:07.961Z,55.03
2019-03-22T13:06:39.330Z,58.41
2019-03-22T13:09:11.380Z,60.48
2019-03-22T13:11:42.679Z,59.59
2019-03-22T13:14:13.971Z,59.21
2019-03-22T13:16:45.256Z,55.64
2019-03-22T13:19:16.597Z,51.73
2019-03-22T13:21:47.963Z,50.35
2019-03-22T13:24:19.334Z,46.69
2019-03-22T13:26:50.689Z,47.57
2019-03-22T13:29:22.024Z,44.35
2019-03-22T13:31:53.328Z,46.79
2019-03-22T13:34:24.677Z,44.55
2019-03-22T13:36:55.947Z,41.55
2019-03-22T13:39:27.189Z,42.13
2019-03-22T13:41:58.483Z,40.65
2019-03-22T13:44:29.899Z,40.38
2019-03-22T13:47:01.222Z,39.56
2019-03-22T13:49:32.698Z,40.18
2019-03-22T13:52:04.220Z,38.39
2019-03-22T13:54:35.699Z,37.96
2019-03-22T13:57:07.036Z,36.44
2019-03-22T13:59:38.433Z,38.72
2019-03-22T14:02:09.741Z,38.10
2019-03-22T14:04:40.998Z,36.87
2019-03-22T14:07:12.285Z,36.64
2019-03-22T14:09:43.408Z,37.65
2019-03-22T14:12:14.642Z,35.65
2019-03-22T14:14:46.226Z,36.24
2019-03-22T14:17:17.566Z,34.89
2019-03-22T14:19:48.810Z,35.72
2019-03-22T14:22:20.080Z,35.62
2019-03-22T14:25:10.655Z,39.51
2019-03-22T14:28:02.822Z,38.93
2019-03-22T14:30:34.165Z,37.61
2019-03-22T14:33:12.818Z,35.98
2019-03-22T14:35:38.524Z,37.78
2019-03-22T14:38:09.851Z,37.41
2019-03-22T14:40:41.170Z,35.93
2019-03-22T14:43:12.413Z,36.01
2019-03-22T14:45:43.697Z,36.83
2019-03-22T14:48:14.950Z,37.24
2019-03-22T14:50:46.282Z,38.42
2019-03-22T14:53:17.580Z,37.22
2019-03-22T14:55:48.810Z,38.27
2019-03-22T14:58:20.149Z,40.36
2019-03-22T15:00:51.459Z,38.97
2019-03-22T15:03:28.585Z,39.77
2019-03-22T15:05:59.846Z,38.50
2019-03-22T15:08:31.133Z,39.10
2019-03-22T15:11:02.531Z,41.32
2019-03-22T15:13:44.650Z,40.55
2019-03-22T15:16:47.615Z,39.48
2019-03-22T15:19:50.083Z,40.00
2019-03-22T15:22:43.520Z,39.81
2019-03-22T15:25:40.123Z,41.94
2019-03-22T15:28:34.072Z,43.43
2019-03-22T15:31:39.435Z,42.56
2019-03-22T15:34:28.255Z,42.69
2019-03-22T15:37:27.175Z,43.72
2019-03-22T15:40:05.250Z,44.65
2019-03-22T15:42:36.617Z,46.53
2019-03-22T15:45:11.930Z,46.27
2019-03-22T15:47:43.358Z,46.54
2019-03-22T15:50:16.744Z,48.62
2019-03-22T15:52:48.111Z,50.24
2019-03-22T15:55:19.576Z,52.38
2019-03-22T15:57:50.893Z,53.13
2019-03-22T16:00:22.348Z,53.40
2019-03-22T16:02:53.649Z,54.06
2019-03-22T16:05:24.970Z,54.84
2019-03-22T16:07:56.301Z,55.65
2019-03-22T16:10:27.646Z,57.12
2019-03-22T16:12:58.983Z,58.98
2019-03-22T16:15:30.319Z,59.56
2019-03-22T16:18:01.711Z,60.41
2019-03-22T16:20:32.969Z,60.73
2019-03-22T16:23:04.382Z,61.16
2019-03-22T16:25:54.524Z,62.65
2019-03-22T16:28:25.798Z,62.54
2019-03-22T16:30:57.060Z,64.40
2019-03-22T16:33:28.320Z,63.79
2019-03-22T16:35:59.665Z,65.38
2019-03-22T16:38:30.950Z,66.54
2019-03-22T16:41:02.335Z,66.98
2019-03-22T16:43:33.595Z,66.55
2019-03-22T16:46:04.961Z,68.00
2019-03-22T16:48:36.370Z,67.46
2019-03-22T16:51:07.812Z,68.28
2019-03-22T16:53:39.142Z,68.78
2019-03-22T16:56:10.431Z,69.68
2019-03-22T16:58:41.831Z,68.86
2019-03-22T17:01:13.356Z,69.91
2019-03-22T17:03:44.730Z,70.45
2019-03-22T17:06:16.073Z,71.25
2019-03-22T17:08:47.303Z,71.98
2019-03-22T17:11:18.656Z,72.73
2019-03-22T17:13:50.072Z,73.91
2019-03-22T17:16:21.429Z,74.36
2019-03-22T17:18:52.587Z,74.47
2019-03-22T17:21:23.837Z,74.66
2019-03-22T17:23:55.160Z,75.30
2019-03-22T17:26:26.442Z,75.23
2019-03-22T17:28:57.793Z,75.81
2019-03-22T17:31:29.123Z,76.25
2019-03-22T17:34:00.484Z,76.88
2019-03-22T17:36:31.836Z,77.23
2019-03-22T17:39:03.278Z,77.25
2019-03-22T17:41:34.692Z,77.43
2019-03-22T17:44:06.051Z,77.88
2019-03-22T17:46:37.436Z,78.07
2019-03-22T17:49:08.748Z,78.63
2019-03-22T17:51:40.135Z,78.89
2019-03-22T17:54:11.450Z,79.33
2019-03-22T17:56:42.760Z,80.19
2019-03-22T17:59:14.126Z,80.48
2019-03-22T18:01:45.584Z,81.00
2019-03-22T18:04:23.842Z,81.12
2019-03-22T18:06:49.970Z,81.14
2019-03-22T18:09:22.532Z,81.63
2019-03-22T18:11:53.825Z,82.50
2019-03-22T18:14:26.941Z,82.18
2019-03-22T18:16:57.993Z,82.44
2019-03-22T18:19:29.283Z,82.75
2019-03-22T18:22:00.444Z,83.09
2019-03-22T18:24:31.667Z,83.24
2019-03-22T18:27:03.119Z,83.44
2019-03-22T18:29:34.386Z,83.96
2019-03-22T18:32:05.723Z,84.90
2019-03-22T18:34:37.622Z,84.44
2019-03-22T18:37:08.943Z,84.81
2019-03-22T18:39:40.302Z,85.19
2019-03-22T18:42:11.596Z,85.19
2019-03-22T18:44:42.906Z,86.67
2019-03-22T18:47:14.126Z,86.65
2019-03-22T18:49:45.653Z,86.73
2019-03-22T18:52:17.032Z,86.69
2019-03-22T18:54:48.736Z,87.20
2019-03-22T18:57:19.955Z,87.86
2019-03-22T18:59:51.186Z,87.95
2019-03-22T19:02:22.531Z,88.16
2019-03-22T19:04:53.855Z,88.33
2019-03-22T19:07:25.293Z,87.98
2019-03-22T19:09:56.711Z,88.07
2019-03-22T19:12:28.349Z,87.97
2019-03-22T19:14:59.666Z,88.02
2019-03-22T19:17:30.947Z,88.35
2019-03-22T19:20:02.229Z,87.86
2019-03-22T19:22:33.536Z,87.98
2019-03-22T19:25:05.193Z,88.27
2019-03-22T19:27:36.475Z,88.44
2019-03-22T19:30:08.881Z,88.44
2019-03-22T19:32:40.346Z,88.42
2019-03-22T19:35:13.212Z,88.05
2019-03-22T19:37:44.585Z,88.12
2019-03-22T19:40:17.515Z,88.60
2019-03-22T19:42:48.833Z,88.62
2019-03-22T19:45:20.301Z,88.88
2019-03-22T19:47:51.556Z,88.63
2019-03-22T19:50:22.919Z,88.81
2019-03-22T19:52:54.208Z,88.73
2019-03-22T19:55:25.508Z,88.72
2019-03-22T19:57:57.354Z,88.76
2019-03-22T20:00:28.703Z,89.42
2019-03-22T20:02:59.992Z,88.69
2019-03-22T20:05:33.204Z,89.21
2019-03-22T20:08:05.095Z,89.33
2019-03-22T20:10:38.921Z,88.87
2019-03-22T20:13:10.352Z,89.50
2019-03-22T20:15:41.788Z,89.17
2019-03-22T20:18:13.150Z,88.96
2019-03-22T20:20:44.579Z,89.93
2019-03-22T20:23:15.960Z,89.84
2019-03-22T20:25:47.208Z,89.52
2019-03-22T20:28:18.509Z,89.33
2019-03-22T20:30:49.882Z,89.33
2019-03-22T20:33:21.192Z,89.16
2019-03-22T20:35:52.466Z,89.03
2019-03-22T20:38:24.988Z,88.77
2019-03-22T20:40:56.433Z,88.91
2019-03-22T20:43:27.734Z,89.37
2019-03-22T20:45:59.046Z,89.26
2019-03-22T20:48:30.351Z,89.31
2019-03-22T20:51:01.752Z,89.34
2019-03-22T20:53:33.105Z,89.36
2019-03-22T20:56:04.667Z,89.32
2019-03-22T20:58:36.055Z,89.28
2019-03-22T21:01:07.458Z,89.22
2019-03-22T21:03:38.759Z,89.25
2019-03-22T21:06:10.546Z,89.39
2019-03-22T21:08:42.350Z,89.32
2019-03-22T21:11:16.926Z,88.94
2019-03-22T21:13:48.287Z,89.47
2019-03-22T21:16:19.661Z,89.55
2019-03-22T21:18:51.070Z,89.75
2019-03-22T21:21:25.392Z,90.00
2019-03-22T21:23:55.735Z,90.56
2019-03-22T21:26:27.461Z,90.27
2019-03-22T21:28:58.945Z,90.04
2019-03-22T21:31:30.256Z,90.50
2019-03-22T21:34:01.671Z,90.50
2019-03-22T21:36:33.072Z,90.42
2019-03-22T21:39:06.445Z,90.57
2019-03-22T21:41:38.205Z,90.74
2019-03-22T21:44:10.002Z,90.24
2019-03-22T21:46:42.682Z,90.91
2019-03-22T21:49:14.272Z,90.98
2019-03-22T21:51:45.743Z,90.80
2019-03-22T21:54:17.149Z,91.02
2019-03-22T21:56:48.524Z,91.22
2019-03-22T21:59:19.901Z,91.41
2019-03-22T22:01:51.221Z,91.58
2019-03-22T22:04:22.500Z,91.71
2019-03-22T22:06:54.037Z,91.52
2019-03-22T22:09:25.393Z,91.51
2019-03-22T22:11:56.751Z,91.36
2019-03-22T22:14:28.041Z,91.72
2019-03-22T22:16:59.472Z,91.85
2019-03-22T22:19:31.180Z,91.98
2019-03-22T22:22:02.424Z,92.03
2019-03-22T22:24:33.750Z,92.35
2019-03-22T22:27:13.496Z,92.10
2019-03-22T22:29:38.161Z,92.21
2019-03-22T22:32:09.530Z,92.38
2019-03-22T22:34:40.725Z,92.54
2019-03-22T22:37:12.099Z,92.62
2019-03-22T22:39:43.458Z,92.50
2019-03-22T22:42:14.815Z,93.12
2019-03-22T22:44:46.010Z,93.12
2019-03-22T22:47:17.429Z,92.86
2019-03-22T22:49:49.063Z,92.76
2019-03-22T22:52:20.424Z,92.74
2019-03-22T22:54:51.759Z,92.83
2019-03-22T22:57:23.108Z,92.64
2019-03-22T22:59:54.472Z,92.95
2019-03-22T23:02:25.807Z,93.16
2019-03-22T23:04:57.151Z,93.04
2019-03-22T23:07:28.443Z,93.11
2019-03-22T23:09:59.787Z,93.06
2019-03-22T23:12:31.087Z,93.08
2019-03-22T23:15:02.449Z,93.16
2019-03-22T23:17:35.865Z,93.31
2019-03-22T23:20:07.673Z,93.31
2019-03-22T23:22:39.057Z,93.33
2019-03-22T23:25:11.080Z,93.43
2019-03-22T23:27:42.385Z,93.34
2019-03-22T23:30:14.636Z,93.32
2019-03-22T23:32:46.010Z,93.21
2019-03-22T23:35:17.322Z,93.27
2019-03-22T23:37:48.644Z,93.18
2019-03-22T23:40:19.991Z,93.19
2019-03-22T23:42:51.335Z,93.37
2019-03-22T23:45:22.641Z,93.36
2019-03-22T23:47:53.974Z,93.59
2019-03-22T23:50:25.144Z,93.82
2019-03-22T23:52:56.477Z,94.02
2019-03-22T23:55:27.823Z,93.96
2019-03-22T23:57:59.225Z,93.94
